METAR Data
IDs: Format: Raw Decoded Include TAF

Data at: 0239 UTC 25 Feb 2021

LEVC 250230Z 00000KT 4000 BR SCT025 12/11 Q1031 NOSIG